Portada
METAR-TAF:

METAR-TAF

Aeroports :

Nowshahr, Iran

latitud: 36-39-48N, longitud: 051-27-53E, altitud: 0 m

Observació

L'informe es va fer fa 56 minuts, a les 22:00 UTC
Vent 2 kt del Sud/Sud-Oest
Temperatura 13°C
Humitat 82%
Pressió 1024 hPa
Visibilitat 10 km o més
Cel ennuvolat a una alçada de 3000 ft

METAR: OINN 132200Z 20002KT 9999 BKN030 13/10 Q1024

Hora: 02:26 (22:56 UTC)


TAF: manca

Observacions i pronòstics meteorològics de més de 4000 aeroports (METAR i TAF).

Les estacions disponibles són els punts grocs i vermells al mapa.

Posi el ratolí al punt desitjat per veure el nom de l'estació.

Feu clic per veure les observacions i els pronòstics meteorològics.

Per canviar el mapa: feu clic els botons verds amb una creu de color negre per apropar; al botó verd amb un guió per allunyar la imatge; o en les fletxes verdes per a mapes adjacents.


METAR-TAF: